sensor_id;sensor_type;location;lat;lon;timestamp;P1;durP1;ratioP1;P2;durP2;ratioP2
69878;SDS011;57161;43.136;24.706;2022-07-22T00:00:51;9.65;;;3.60;;
69878;SDS011;57161;43.136;24.706;2022-07-22T00:03:17;8.10;;;3.70;;
69878;SDS011;57161;43.136;24.706;2022-07-22T00:05:42;6.68;;;3.60;;
69878;SDS011;57161;43.136;24.706;2022-07-22T00:08:08;8.07;;;3.33;;
69878;SDS011;57161;43.136;24.706;2022-07-22T00:10:33;5.47;;;3.55;;
69878;SDS011;57161;43.136;24.706;2022-07-22T00:12:59;5.57;;;3.75;;
69878;SDS011;57161;43.136;24.706;2022-07-22T00:15:24;8.68;;;3.90;;
69878;SDS011;57161;43.136;24.706;2022-07-22T00:17:50;8.27;;;3.78;;
69878;SDS011;57161;43.136;24.706;2022-07-22T00:20:16;8.93;;;3.25;;
69878;SDS011;57161;43.136;24.706;2022-07-22T00:22:41;6.93;;;3.85;;
69878;SDS011;57161;43.136;24.706;2022-07-22T00:25:07;7.20;;;3.20;;
69878;SDS011;57161;43.136;24.706;2022-07-22T00:27:33;5.57;;;3.97;;
69878;SDS011;57161;43.136;24.706;2022-07-22T00:29:58;7.80;;;3.72;;
69878;SDS011;57161;43.136;24.706;2022-07-22T00:32:24;7.22;;;3.70;;
69878;SDS011;57161;43.136;24.706;2022-07-22T00:34:50;5.32;;;3.58;;
69878;SDS011;57161;43.136;24.706;2022-07-22T00:37:15;6.95;;;3.70;;
69878;SDS011;57161;43.136;24.706;2022-07-22T00:39:41;12.80;;;4.15;;
69878;SDS011;57161;43.136;24.706;2022-07-22T00:42:06;8.82;;;3.97;;
69878;SDS011;57161;43.136;24.706;2022-07-22T00:44:31;7.35;;;3.70;;
69878;SDS011;57161;43.136;24.706;2022-07-22T00:46:57;5.95;;;3.65;;
69878;SDS011;57161;43.136;24.706;2022-07-22T00:49:22;8.02;;;3.65;;
69878;SDS011;57161;43.136;24.706;2022-07-22T00:51:48;8.05;;;3.53;;
69878;SDS011;57161;43.136;24.706;2022-07-22T00:54:14;4.82;;;3.50;;
69878;SDS011;57161;43.136;24.706;2022-07-22T00:56:39;9.02;;;3.70;;
69878;SDS011;57161;43.136;24.706;2022-07-22T00:59:07;6.55;;;3.80;;
69878;SDS011;57161;43.136;24.706;2022-07-22T01:01:34;7.05;;;3.75;;
69878;SDS011;57161;43.136;24.706;2022-07-22T01:03:59;7.07;;;4.03;;
69878;SDS011;57161;43.136;24.706;2022-07-22T01:06:25;6.82;;;3.67;;
69878;SDS011;57161;43.136;24.706;2022-07-22T01:08:51;5.38;;;3.88;;
69878;SDS011;57161;43.136;24.706;2022-07-22T01:11:17;5.28;;;3.58;;
69878;SDS011;57161;43.136;24.706;2022-07-22T01:13:45;5.85;;;4.13;;
69878;SDS011;57161;43.136;24.706;2022-07-22T01:16:12;8.25;;;4.20;;
69878;SDS011;57161;43.136;24.706;2022-07-22T01:18:39;13.02;;;4.72;;
69878;SDS011;57161;43.136;24.706;2022-07-22T01:21:06;7.95;;;3.78;;
69878;SDS011;57161;43.136;24.706;2022-07-22T01:23:33;8.55;;;4.30;;
69878;SDS011;57161;43.136;24.706;2022-07-22T01:25:59;10.40;;;4.82;;
69878;SDS011;57161;43.136;24.706;2022-07-22T01:28:26;9.75;;;4.13;;
69878;SDS011;57161;43.136;24.706;2022-07-22T01:30:51;6.43;;;4.00;;
69878;SDS011;57161;43.136;24.706;2022-07-22T01:33:18;5.15;;;4.03;;
69878;SDS011;57161;43.136;24.706;2022-07-22T01:35:45;9.25;;;4.50;;
69878;SDS011;57161;43.136;24.706;2022-07-22T01:38:11;7.75;;;4.18;;
69878;SDS011;57161;43.136;24.706;2022-07-22T01:40:38;8.55;;;4.15;;
69878;SDS011;57161;43.136;24.706;2022-07-22T01:43:04;6.43;;;3.90;;
69878;SDS011;57161;43.136;24.706;2022-07-22T01:45:30;4.45;;;3.58;;
69878;SDS011;57161;43.136;24.706;2022-07-22T01:47:55;6.82;;;3.70;;
69878;SDS011;57161;43.136;24.706;2022-07-22T01:50:21;6.95;;;4.07;;
69878;SDS011;57161;43.136;24.706;2022-07-22T01:52:47;6.70;;;4.10;;
69878;SDS011;57161;43.136;24.706;2022-07-22T01:55:12;5.93;;;3.90;;
69878;SDS011;57161;43.136;24.706;2022-07-22T01:57:39;7.80;;;4.18;;
69878;SDS011;57161;43.136;24.706;2022-07-22T02:00:06;5.75;;;3.83;;
69878;SDS011;57161;43.136;24.706;2022-07-22T02:02:33;5.80;;;3.97;;
69878;SDS011;57161;43.136;24.706;2022-07-22T02:04:59;6.63;;;3.60;;
69878;SDS011;57161;43.136;24.706;2022-07-22T02:07:25;7.10;;;3.70;;
69878;SDS011;57161;43.136;24.706;2022-07-22T02:09:51;7.78;;;4.20;;
69878;SDS011;57161;43.136;24.706;2022-07-22T02:12:17;10.25;;;4.22;;
69878;SDS011;57161;43.136;24.706;2022-07-22T02:14:43;6.43;;;4.03;;
69878;SDS011;57161;43.136;24.706;2022-07-22T02:17:09;8.20;;;3.80;;
69878;SDS011;57161;43.136;24.706;2022-07-22T02:19:35;8.77;;;4.97;;
69878;SDS011;57161;43.136;24.706;2022-07-22T02:22:00;7.75;;;3.95;;
69878;SDS011;57161;43.136;24.706;2022-07-22T02:24:26;5.45;;;3.75;;
69878;SDS011;57161;43.136;24.706;2022-07-22T02:26:51;8.27;;;4.13;;
69878;SDS011;57161;43.136;24.706;2022-07-22T02:29:17;9.15;;;4.15;;
69878;SDS011;57161;43.136;24.706;2022-07-22T02:31:42;5.75;;;4.00;;
69878;SDS011;57161;43.136;24.706;2022-07-22T02:34:08;6.53;;;3.90;;
69878;SDS011;57161;43.136;24.706;2022-07-22T02:36:33;8.52;;;4.18;;
69878;SDS011;57161;43.136;24.706;2022-07-22T02:38:59;7.47;;;4.22;;
69878;SDS011;57161;43.136;24.706;2022-07-22T02:41:24;10.40;;;4.50;;
69878;SDS011;57161;43.136;24.706;2022-07-22T02:43:50;8.57;;;4.13;;
69878;SDS011;57161;43.136;24.706;2022-07-22T02:46:19;5.55;;;3.78;;
69878;SDS011;57161;43.136;24.706;2022-07-22T02:48:48;7.30;;;3.70;;
69878;SDS011;57161;43.136;24.706;2022-07-22T02:51:13;10.90;;;4.82;;
69878;SDS011;57161;43.136;24.706;2022-07-22T02:53:39;11.20;;;4.25;;
69878;SDS011;57161;43.136;24.706;2022-07-22T02:56:04;7.63;;;4.35;;
69878;SDS011;57161;43.136;24.706;2022-07-22T02:58:30;6.82;;;4.13;;
69878;SDS011;57161;43.136;24.706;2022-07-22T03:00:55;11.02;;;4.60;;
69878;SDS011;57161;43.136;24.706;2022-07-22T03:03:21;7.97;;;4.50;;
69878;SDS011;57161;43.136;24.706;2022-07-22T03:05:46;8.93;;;4.10;;
69878;SDS011;57161;43.136;24.706;2022-07-22T03:08:12;9.07;;;4.03;;
69878;SDS011;57161;43.136;24.706;2022-07-22T03:10:38;7.40;;;4.25;;
69878;SDS011;57161;43.136;24.706;2022-07-22T03:13:03;5.53;;;4.07;;
69878;SDS011;57161;43.136;24.706;2022-07-22T03:15:29;9.57;;;4.65;;
69878;SDS011;57161;43.136;24.706;2022-07-22T03:17:54;8.48;;;4.50;;
69878;SDS011;57161;43.136;24.706;2022-07-22T03:20:20;8.30;;;4.55;;
69878;SDS011;57161;43.136;24.706;2022-07-22T03:22:45;8.45;;;3.90;;
69878;SDS011;57161;43.136;24.706;2022-07-22T03:25:11;12.50;;;4.32;;
69878;SDS011;57161;43.136;24.706;2022-07-22T03:27:36;6.40;;;3.85;;
69878;SDS011;57161;43.136;24.706;2022-07-22T03:30:03;10.15;;;4.78;;
69878;SDS011;57161;43.136;24.706;2022-07-22T03:32:29;8.75;;;4.25;;
69878;SDS011;57161;43.136;24.706;2022-07-22T03:34:55;10.20;;;4.75;;
69878;SDS011;57161;43.136;24.706;2022-07-22T03:37:20;9.02;;;5.00;;
69878;SDS011;57161;43.136;24.706;2022-07-22T03:39:46;8.00;;;4.50;;
69878;SDS011;57161;43.136;24.706;2022-07-22T03:42:11;8.73;;;4.45;;
69878;SDS011;57161;43.136;24.706;2022-07-22T03:44:37;9.77;;;4.75;;
69878;SDS011;57161;43.136;24.706;2022-07-22T03:47:02;11.60;;;4.35;;
69878;SDS011;57161;43.136;24.706;2022-07-22T03:49:28;10.48;;;4.25;;
69878;SDS011;57161;43.136;24.706;2022-07-22T03:51:54;8.80;;;4.60;;
69878;SDS011;57161;43.136;24.706;2022-07-22T03:54:20;9.00;;;4.55;;
69878;SDS011;57161;43.136;24.706;2022-07-22T03:56:46;9.15;;;4.75;;
69878;SDS011;57161;43.136;24.706;2022-07-22T03:59:11;13.15;;;4.68;;
69878;SDS011;57161;43.136;24.706;2022-07-22T04:01:37;7.53;;;4.30;;
69878;SDS011;57161;43.136;24.706;2022-07-22T04:04:02;10.27;;;4.68;;
69878;SDS011;57161;43.136;24.706;2022-07-22T04:06:29;12.10;;;5.10;;
69878;SDS011;57161;43.136;24.706;2022-07-22T04:08:55;11.50;;;5.00;;
69878;SDS011;57161;43.136;24.706;2022-07-22T04:11:20;11.68;;;4.78;;
69878;SDS011;57161;43.136;24.706;2022-07-22T04:13:46;8.63;;;4.50;;
69878;SDS011;57161;43.136;24.706;2022-07-22T04:16:11;8.68;;;4.60;;
69878;SDS011;57161;43.136;24.706;2022-07-22T04:18:37;7.57;;;4.57;;
69878;SDS011;57161;43.136;24.706;2022-07-22T04:21:02;10.80;;;5.20;;
69878;SDS011;57161;43.136;24.706;2022-07-22T04:23:28;11.73;;;4.57;;
69878;SDS011;57161;43.136;24.706;2022-07-22T04:25:54;13.02;;;5.07;;
69878;SDS011;57161;43.136;24.706;2022-07-22T04:28:19;10.48;;;4.90;;
69878;SDS011;57161;43.136;24.706;2022-07-22T04:30:45;9.50;;;4.80;;
69878;SDS011;57161;43.136;24.706;2022-07-22T04:33:11;10.85;;;4.90;;
69878;SDS011;57161;43.136;24.706;2022-07-22T04:35:36;8.88;;;4.80;;
69878;SDS011;57161;43.136;24.706;2022-07-22T04:38:02;15.50;;;4.80;;
69878;SDS011;57161;43.136;24.706;2022-07-22T04:40:27;12.02;;;4.75;;
69878;SDS011;57161;43.136;24.706;2022-07-22T04:42:53;12.35;;;5.00;;
69878;SDS011;57161;43.136;24.706;2022-07-22T04:45:18;9.98;;;4.78;;
69878;SDS011;57161;43.136;24.706;2022-07-22T04:47:44;12.60;;;5.10;;
69878;SDS011;57161;43.136;24.706;2022-07-22T04:50:09;11.35;;;4.50;;
69878;SDS011;57161;43.136;24.706;2022-07-22T04:52:35;9.25;;;4.53;;
69878;SDS011;57161;43.136;24.706;2022-07-22T04:55:00;13.73;;;4.78;;
69878;SDS011;57161;43.136;24.706;2022-07-22T04:57:26;11.10;;;5.03;;
69878;SDS011;57161;43.136;24.706;2022-07-22T04:59:52;10.10;;;5.00;;
69878;SDS011;57161;43.136;24.706;2022-07-22T05:02:18;11.40;;;4.78;;
69878;SDS011;57161;43.136;24.706;2022-07-22T05:04:44;12.13;;;4.82;;
69878;SDS011;57161;43.136;24.706;2022-07-22T05:07:10;7.07;;;4.90;;
69878;SDS011;57161;43.136;24.706;2022-07-22T05:09:35;10.02;;;5.20;;
69878;SDS011;57161;43.136;24.706;2022-07-22T05:12:02;24.80;;;5.43;;
69878;SDS011;57161;43.136;24.706;2022-07-22T05:14:28;15.38;;;4.80;;
69878;SDS011;57161;43.136;24.706;2022-07-22T05:16:54;9.25;;;4.90;;
69878;SDS011;57161;43.136;24.706;2022-07-22T05:19:19;13.05;;;5.18;;
69878;SDS011;57161;43.136;24.706;2022-07-22T05:21:45;12.52;;;5.13;;
69878;SDS011;57161;43.136;24.706;2022-07-22T05:24:11;19.38;;;5.47;;
69878;SDS011;57161;43.136;24.706;2022-07-22T05:26:37;12.48;;;5.22;;
69878;SDS011;57161;43.136;24.706;2022-07-22T05:29:02;25.85;;;5.53;;
69878;SDS011;57161;43.136;24.706;2022-07-22T05:31:28;10.82;;;4.60;;
69878;SDS011;57161;43.136;24.706;2022-07-22T05:33:54;12.45;;;4.88;;
69878;SDS011;57161;43.136;24.706;2022-07-22T05:36:20;15.00;;;5.05;;
69878;SDS011;57161;43.136;24.706;2022-07-22T05:38:45;11.10;;;4.97;;
69878;SDS011;57161;43.136;24.706;2022-07-22T05:41:11;10.27;;;5.07;;
69878;SDS011;57161;43.136;24.706;2022-07-22T05:43:36;11.40;;;5.35;;
69878;SDS011;57161;43.136;24.706;2022-07-22T05:46:02;9.57;;;5.10;;
69878;SDS011;57161;43.136;24.706;2022-07-22T05:48:27;9.90;;;4.90;;
69878;SDS011;57161;43.136;24.706;2022-07-22T05:50:53;10.15;;;4.70;;
69878;SDS011;57161;43.136;24.706;2022-07-22T05:53:18;11.43;;;4.43;;
69878;SDS011;57161;43.136;24.706;2022-07-22T05:55:44;19.15;;;5.03;;
69878;SDS011;57161;43.136;24.706;2022-07-22T05:58:09;13.77;;;5.13;;
69878;SDS011;57161;43.136;24.706;2022-07-22T06:00:35;17.95;;;4.68;;
69878;SDS011;57161;43.136;24.706;2022-07-22T06:03:00;9.63;;;4.50;;
69878;SDS011;57161;43.136;24.706;2022-07-22T06:05:26;12.55;;;4.75;;
69878;SDS011;57161;43.136;24.706;2022-07-22T06:07:51;11.73;;;4.97;;
69878;SDS011;57161;43.136;24.706;2022-07-22T06:10:17;12.93;;;5.10;;
69878;SDS011;57161;43.136;24.706;2022-07-22T06:12:43;11.07;;;4.93;;
69878;SDS011;57161;43.136;24.706;2022-07-22T06:15:09;8.35;;;4.43;;
69878;SDS011;57161;43.136;24.706;2022-07-22T06:17:34;14.57;;;4.88;;
69878;SDS011;57161;43.136;24.706;2022-07-22T06:20:00;14.98;;;5.50;;
69878;SDS011;57161;43.136;24.706;2022-07-22T06:22:26;19.27;;;4.95;;
69878;SDS011;57161;43.136;24.706;2022-07-22T06:24:51;11.77;;;5.32;;
69878;SDS011;57161;43.136;24.706;2022-07-22T06:27:17;16.02;;;5.68;;
69878;SDS011;57161;43.136;24.706;2022-07-22T06:29:42;15.30;;;5.53;;
69878;SDS011;57161;43.136;24.706;2022-07-22T06:32:08;12.45;;;5.00;;
69878;SDS011;57161;43.136;24.706;2022-07-22T06:34:33;9.77;;;4.82;;
69878;SDS011;57161;43.136;24.706;2022-07-22T06:36:59;12.57;;;5.47;;
69878;SDS011;57161;43.136;24.706;2022-07-22T06:39:25;13.23;;;5.13;;
69878;SDS011;57161;43.136;24.706;2022-07-22T06:41:50;11.38;;;5.43;;
69878;SDS011;57161;43.136;24.706;2022-07-22T06:44:16;14.07;;;5.90;;
69878;SDS011;57161;43.136;24.706;2022-07-22T06:46:41;11.88;;;5.35;;
69878;SDS011;57161;43.136;24.706;2022-07-22T06:49:07;11.73;;;5.00;;
69878;SDS011;57161;43.136;24.706;2022-07-22T06:51:32;9.25;;;5.05;;
69878;SDS011;57161;43.136;24.706;2022-07-22T06:53:59;10.98;;;4.63;;
69878;SDS011;57161;43.136;24.706;2022-07-22T06:56:24;12.43;;;4.85;;
69878;SDS011;57161;43.136;24.706;2022-07-22T06:58:50;11.20;;;5.03;;
69878;SDS011;57161;43.136;24.706;2022-07-22T07:01:15;12.10;;;5.55;;
69878;SDS011;57161;43.136;24.706;2022-07-22T07:03:41;12.23;;;5.85;;
69878;SDS011;57161;43.136;24.706;2022-07-22T07:06:07;12.20;;;5.35;;
69878;SDS011;57161;43.136;24.706;2022-07-22T07:08:34;14.30;;;5.00;;
69878;SDS011;57161;43.136;24.706;2022-07-22T07:10:59;14.32;;;5.45;;
69878;SDS011;57161;43.136;24.706;2022-07-22T07:13:25;13.25;;;5.18;;
69878;SDS011;57161;43.136;24.706;2022-07-22T07:15:51;13.65;;;5.85;;
69878;SDS011;57161;43.136;24.706;2022-07-22T07:18:16;15.50;;;5.22;;
69878;SDS011;57161;43.136;24.706;2022-07-22T07:20:41;9.95;;;5.15;;
69878;SDS011;57161;43.136;24.706;2022-07-22T07:23:07;15.25;;;5.18;;
69878;SDS011;57161;43.136;24.706;2022-07-22T07:25:32;9.95;;;5.70;;
69878;SDS011;57161;43.136;24.706;2022-07-22T07:27:58;11.20;;;5.00;;
69878;SDS011;57161;43.136;24.706;2022-07-22T07:30:24;9.40;;;5.13;;
69878;SDS011;57161;43.136;24.706;2022-07-22T07:32:50;12.10;;;5.82;;
69878;SDS011;57161;43.136;24.706;2022-07-22T07:35:15;18.17;;;5.57;;
69878;SDS011;57161;43.136;24.706;2022-07-22T07:37:40;11.25;;;5.32;;
69878;SDS011;57161;43.136;24.706;2022-07-22T07:40:06;18.92;;;5.30;;
69878;SDS011;57161;43.136;24.706;2022-07-22T07:42:32;12.73;;;5.28;;
69878;SDS011;57161;43.136;24.706;2022-07-22T07:44:59;10.65;;;5.72;;
69878;SDS011;57161;43.136;24.706;2022-07-22T07:47:24;14.13;;;5.40;;
69878;SDS011;57161;43.136;24.706;2022-07-22T07:49:50;10.50;;;5.35;;
69878;SDS011;57161;43.136;24.706;2022-07-22T07:52:16;16.60;;;5.53;;
69878;SDS011;57161;43.136;24.706;2022-07-22T07:54:42;15.07;;;5.93;;
69878;SDS011;57161;43.136;24.706;2022-07-22T07:57:09;18.27;;;5.40;;
69878;SDS011;57161;43.136;24.706;2022-07-22T07:59:36;15.73;;;5.50;;
69878;SDS011;57161;43.136;24.706;2022-07-22T08:02:02;15.48;;;5.50;;
69878;SDS011;57161;43.136;24.706;2022-07-22T08:04:28;11.80;;;5.72;;
69878;SDS011;57161;43.136;24.706;2022-07-22T08:06:54;21.20;;;5.47;;
69878;SDS011;57161;43.136;24.706;2022-07-22T08:09:19;12.38;;;5.63;;
69878;SDS011;57161;43.136;24.706;2022-07-22T08:11:45;11.23;;;5.43;;
69878;SDS011;57161;43.136;24.706;2022-07-22T08:14:10;9.85;;;5.20;;
69878;SDS011;57161;43.136;24.706;2022-07-22T08:16:36;9.13;;;5.47;;
69878;SDS011;57161;43.136;24.706;2022-07-22T08:19:02;17.15;;;5.38;;
69878;SDS011;57161;43.136;24.706;2022-07-22T08:21:27;16.50;;;5.82;;
69878;SDS011;57161;43.136;24.706;2022-07-22T08:23:53;27.52;;;5.70;;
69878;SDS011;57161;43.136;24.706;2022-07-22T08:26:18;9.93;;;5.13;;
69878;SDS011;57161;43.136;24.706;2022-07-22T08:28:44;11.23;;;4.90;;
69878;SDS011;57161;43.136;24.706;2022-07-22T08:31:10;12.30;;;5.38;;
69878;SDS011;57161;43.136;24.706;2022-07-22T08:33:35;10.32;;;5.45;;
69878;SDS011;57161;43.136;24.706;2022-07-22T08:36:01;16.05;;;5.22;;
69878;SDS011;57161;43.136;24.706;2022-07-22T08:38:26;11.57;;;4.97;;
69878;SDS011;57161;43.136;24.706;2022-07-22T08:40:53;10.57;;;5.43;;
69878;SDS011;57161;43.136;24.706;2022-07-22T08:43:20;7.88;;;4.95;;
69878;SDS011;57161;43.136;24.706;2022-07-22T08:45:46;44.03;;;6.10;;
69878;SDS011;57161;43.136;24.706;2022-07-22T08:48:13;16.27;;;5.43;;
69878;SDS011;57161;43.136;24.706;2022-07-22T08:50:39;8.15;;;4.75;;
69878;SDS011;57161;43.136;24.706;2022-07-22T08:53:04;9.45;;;5.10;;
69878;SDS011;57161;43.136;24.706;2022-07-22T08:55:34;12.15;;;5.57;;
69878;SDS011;57161;43.136;24.706;2022-07-22T08:58:04;11.05;;;5.22;;
69878;SDS011;57161;43.136;24.706;2022-07-22T09:00:30;12.43;;;4.85;;
69878;SDS011;57161;43.136;24.706;2022-07-22T09:02:55;8.30;;;5.20;;
69878;SDS011;57161;43.136;24.706;2022-07-22T09:05:21;14.45;;;5.18;;
69878;SDS011;57161;43.136;24.706;2022-07-22T09:07:46;11.57;;;5.20;;
69878;SDS011;57161;43.136;24.706;2022-07-22T09:10:21;11.73;;;4.68;;
69878;SDS011;57161;43.136;24.706;2022-07-22T09:12:53;12.82;;;4.65;;
69878;SDS011;57161;43.136;24.706;2022-07-22T09:15:26;11.52;;;4.60;;
69878;SDS011;57161;43.136;24.706;2022-07-22T09:17:55;11.40;;;4.68;;
69878;SDS011;57161;43.136;24.706;2022-07-22T09:20:21;10.48;;;5.13;;
69878;SDS011;57161;43.136;24.706;2022-07-22T09:22:48;17.00;;;4.82;;
69878;SDS011;57161;43.136;24.706;2022-07-22T09:27:46;14.85;;;5.15;;
69878;SDS011;57161;43.136;24.706;2022-07-22T09:30:15;11.88;;;5.30;;
69878;SDS011;57161;43.136;24.706;2022-07-22T09:32:47;14.43;;;4.82;;
69878;SDS011;57161;43.136;24.706;2022-07-22T09:35:13;10.00;;;4.88;;
69878;SDS011;57161;43.136;24.706;2022-07-22T09:37:49;11.18;;;4.25;;
69878;SDS011;57161;43.136;24.706;2022-07-22T09:40:19;9.38;;;4.40;;
69878;SDS011;57161;43.136;24.706;2022-07-22T09:42:52;15.77;;;5.10;;
69878;SDS011;57161;43.136;24.706;2022-07-22T09:45:23;11.63;;;5.40;;
69878;SDS011;57161;43.136;24.706;2022-07-22T09:47:50;8.93;;;4.93;;
69878;SDS011;57161;43.136;24.706;2022-07-22T09:50:32;9.27;;;4.95;;
69878;SDS011;57161;43.136;24.706;2022-07-22T09:52:59;19.35;;;5.05;;
69878;SDS011;57161;43.136;24.706;2022-07-22T09:55:25;10.70;;;5.25;;
69878;SDS011;57161;43.136;24.706;2022-07-22T09:57:52;15.48;;;4.70;;
69878;SDS011;57161;43.136;24.706;2022-07-22T10:00:20;13.90;;;4.65;;
69878;SDS011;57161;43.136;24.706;2022-07-22T10:02:52;12.05;;;4.85;;
69878;SDS011;57161;43.136;24.706;2022-07-22T10:05:21;15.32;;;5.65;;
69878;SDS011;57161;43.136;24.706;2022-07-22T10:07:51;10.48;;;4.93;;
69878;SDS011;57161;43.136;24.706;2022-07-22T10:10:18;11.52;;;4.90;;
69878;SDS011;57161;43.136;24.706;2022-07-22T10:12:47;10.23;;;4.50;;
69878;SDS011;57161;43.136;24.706;2022-07-22T10:15:14;16.77;;;5.03;;
69878;SDS011;57161;43.136;24.706;2022-07-22T10:17:41;15.07;;;5.30;;
69878;SDS011;57161;43.136;24.706;2022-07-22T10:20:10;16.20;;;4.90;;
69878;SDS011;57161;43.136;24.706;2022-07-22T10:25:09;13.82;;;5.18;;
69878;SDS011;57161;43.136;24.706;2022-07-22T10:27:46;11.85;;;5.85;;
69878;SDS011;57161;43.136;24.706;2022-07-22T10:30:12;9.82;;;5.10;;
69878;SDS011;57161;43.136;24.706;2022-07-22T10:32:40;10.05;;;4.70;;
69878;SDS011;57161;43.136;24.706;2022-07-22T10:45:26;17.85;;;4.55;;
69878;SDS011;57161;43.136;24.706;2022-07-22T10:47:57;13.32;;;4.85;;
69878;SDS011;57161;43.136;24.706;2022-07-22T10:53:09;15.25;;;4.85;;
69878;SDS011;57161;43.136;24.706;2022-07-22T11:00:58;15.70;;;5.18;;
69878;SDS011;57161;43.136;24.706;2022-07-22T11:03:26;14.65;;;5.18;;
69878;SDS011;57161;43.136;24.706;2022-07-22T11:05:56;14.60;;;4.90;;
69878;SDS011;57161;43.136;24.706;2022-07-22T11:08:22;11.13;;;5.22;;
69878;SDS011;57161;43.136;24.706;2022-07-22T11:10:48;10.88;;;4.80;;
69878;SDS011;57161;43.136;24.706;2022-07-22T11:13:34;13.02;;;4.55;;
69878;SDS011;57161;43.136;24.706;2022-07-22T11:16:16;15.38;;;5.03;;
69878;SDS011;57161;43.136;24.706;2022-07-22T11:18:46;14.38;;;4.82;;
69878;SDS011;57161;43.136;24.706;2022-07-22T11:21:13;12.35;;;4.63;;
69878;SDS011;57161;43.136;24.706;2022-07-22T11:23:41;12.05;;;4.57;;
69878;SDS011;57161;43.136;24.706;2022-07-22T11:26:08;12.68;;;4.15;;
69878;SDS011;57161;43.136;24.706;2022-07-22T11:28:41;11.45;;;4.63;;
69878;SDS011;57161;43.136;24.706;2022-07-22T11:31:08;11.40;;;4.28;;
69878;SDS011;57161;43.136;24.706;2022-07-22T11:33:35;11.20;;;4.43;;
69878;SDS011;57161;43.136;24.706;2022-07-22T11:36:04;11.85;;;4.63;;
69878;SDS011;57161;43.136;24.706;2022-07-22T11:41:06;6.93;;;4.40;;
69878;SDS011;57161;43.136;24.706;2022-07-22T11:43:39;10.27;;;4.53;;
69878;SDS011;57161;43.136;24.706;2022-07-22T11:46:09;9.00;;;5.18;;
69878;SDS011;57161;43.136;24.706;2022-07-22T11:48:35;5.97;;;4.45;;
69878;SDS011;57161;43.136;24.706;2022-07-22T11:51:02;10.15;;;4.80;;
69878;SDS011;57161;43.136;24.706;2022-07-22T11:53:29;7.35;;;4.45;;
69878;SDS011;57161;43.136;24.706;2022-07-22T11:56:04;14.25;;;5.00;;
69878;SDS011;57161;43.136;24.706;2022-07-22T12:01:17;8.38;;;4.50;;
69878;SDS011;57161;43.136;24.706;2022-07-22T12:03:47;14.75;;;4.88;;
69878;SDS011;57161;43.136;24.706;2022-07-22T12:06:15;8.48;;;4.97;;
69878;SDS011;57161;43.136;24.706;2022-07-22T12:08:46;12.27;;;5.13;;
69878;SDS011;57161;43.136;24.706;2022-07-22T12:11:15;10.25;;;5.28;;
69878;SDS011;57161;43.136;24.706;2022-07-22T12:13:42;10.73;;;5.10;;
69878;SDS011;57161;43.136;24.706;2022-07-22T12:16:20;8.95;;;4.95;;
69878;SDS011;57161;43.136;24.706;2022-07-22T12:18:55;8.68;;;4.47;;
69878;SDS011;57161;43.136;24.706;2022-07-22T12:21:26;7.22;;;5.43;;
69878;SDS011;57161;43.136;24.706;2022-07-22T12:23:54;16.10;;;5.40;;
69878;SDS011;57161;43.136;24.706;2022-07-22T12:26:46;12.30;;;4.90;;
69878;SDS011;57161;43.136;24.706;2022-07-22T12:29:16;13.38;;;4.97;;
69878;SDS011;57161;43.136;24.706;2022-07-22T12:31:43;12.52;;;4.85;;
69878;SDS011;57161;43.136;24.706;2022-07-22T12:34:13;10.02;;;4.97;;
69878;SDS011;57161;43.136;24.706;2022-07-22T12:36:42;12.48;;;4.80;;
69878;SDS011;57161;43.136;24.706;2022-07-22T12:39:13;10.77;;;4.55;;
69878;SDS011;57161;43.136;24.706;2022-07-22T12:41:51;9.07;;;4.65;;
69878;SDS011;57161;43.136;24.706;2022-07-22T12:44:25;9.23;;;5.40;;
69878;SDS011;57161;43.136;24.706;2022-07-22T12:46:52;13.25;;;5.60;;
69878;SDS011;57161;43.136;24.706;2022-07-22T12:49:20;15.60;;;5.43;;
69878;SDS011;57161;43.136;24.706;2022-07-22T12:54:34;10.57;;;4.47;;
69878;SDS011;57161;43.136;24.706;2022-07-22T12:57:00;15.88;;;4.10;;
69878;SDS011;57161;43.136;24.706;2022-07-22T12:59:26;11.88;;;4.97;;
69878;SDS011;57161;43.136;24.706;2022-07-22T13:01:52;12.35;;;5.75;;
69878;SDS011;57161;43.136;24.706;2022-07-22T13:04:17;15.63;;;5.82;;
69878;SDS011;57161;43.136;24.706;2022-07-22T13:06:43;13.93;;;5.40;;
69878;SDS011;57161;43.136;24.706;2022-07-22T13:09:08;10.73;;;5.47;;
69878;SDS011;57161;43.136;24.706;2022-07-22T13:11:34;19.73;;;5.28;;
69878;SDS011;57161;43.136;24.706;2022-07-22T13:14:05;14.18;;;4.65;;
69878;SDS011;57161;43.136;24.706;2022-07-22T13:16:31;12.55;;;4.88;;
69878;SDS011;57161;43.136;24.706;2022-07-22T13:18:57;9.50;;;5.28;;
69878;SDS011;57161;43.136;24.706;2022-07-22T13:21:23;9.38;;;4.82;;
69878;SDS011;57161;43.136;24.706;2022-07-22T13:23:48;8.88;;;5.18;;
69878;SDS011;57161;43.136;24.706;2022-07-22T13:26:14;14.57;;;5.00;;
69878;SDS011;57161;43.136;24.706;2022-07-22T13:28:40;9.68;;;5.10;;
69878;SDS011;57161;43.136;24.706;2022-07-22T13:31:05;11.98;;;3.85;;
69878;SDS011;57161;43.136;24.706;2022-07-22T13:33:30;11.75;;;4.88;;
69878;SDS011;57161;43.136;24.706;2022-07-22T13:35:56;10.27;;;4.65;;
69878;SDS011;57161;43.136;24.706;2022-07-22T13:38:21;7.47;;;4.63;;
69878;SDS011;57161;43.136;24.706;2022-07-22T13:40:47;20.90;;;5.40;;
69878;SDS011;57161;43.136;24.706;2022-07-22T13:43:20;10.00;;;4.03;;
69878;SDS011;57161;43.136;24.706;2022-07-22T13:45:48;12.30;;;4.43;;
69878;SDS011;57161;43.136;24.706;2022-07-22T13:48:13;9.80;;;4.22;;
69878;SDS011;57161;43.136;24.706;2022-07-22T13:50:39;6.43;;;3.90;;
69878;SDS011;57161;43.136;24.706;2022-07-22T13:53:04;11.68;;;4.22;;
69878;SDS011;57161;43.136;24.706;2022-07-22T13:55:30;5.93;;;4.15;;
69878;SDS011;57161;43.136;24.706;2022-07-22T13:57:55;9.85;;;3.90;;
69878;SDS011;57161;43.136;24.706;2022-07-22T14:00:23;11.52;;;3.83;;
69878;SDS011;57161;43.136;24.706;2022-07-22T14:02:49;6.57;;;4.07;;
69878;SDS011;57161;43.136;24.706;2022-07-22T14:05:15;5.63;;;3.97;;
69878;SDS011;57161;43.136;24.706;2022-07-22T14:07:40;11.10;;;4.00;;
69878;SDS011;57161;43.136;24.706;2022-07-22T14:10:06;6.20;;;3.90;;
69878;SDS011;57161;43.136;24.706;2022-07-22T14:12:32;6.95;;;3.50;;
69878;SDS011;57161;43.136;24.706;2022-07-22T14:14:57;11.15;;;4.13;;
69878;SDS011;57161;43.136;24.706;2022-07-22T14:17:23;11.50;;;4.30;;
69878;SDS011;57161;43.136;24.706;2022-07-22T14:19:48;8.07;;;3.90;;
69878;SDS011;57161;43.136;24.706;2022-07-22T14:22:14;17.65;;;4.20;;
69878;SDS011;57161;43.136;24.706;2022-07-22T14:24:40;13.98;;;4.57;;
69878;SDS011;57161;43.136;24.706;2022-07-22T14:27:05;13.82;;;4.38;;
69878;SDS011;57161;43.136;24.706;2022-07-22T14:29:31;7.63;;;3.92;;
69878;SDS011;57161;43.136;24.706;2022-07-22T14:31:56;8.93;;;4.10;;
69878;SDS011;57161;43.136;24.706;2022-07-22T14:34:22;12.98;;;4.00;;
69878;SDS011;57161;43.136;24.706;2022-07-22T14:36:47;8.85;;;3.95;;
69878;SDS011;57161;43.136;24.706;2022-07-22T14:39:13;4.43;;;3.30;;
69878;SDS011;57161;43.136;24.706;2022-07-22T14:41:39;7.80;;;3.70;;
69878;SDS011;57161;43.136;24.706;2022-07-22T14:44:04;9.00;;;3.63;;
69878;SDS011;57161;43.136;24.706;2022-07-22T14:46:29;18.33;;;3.92;;
69878;SDS011;57161;43.136;24.706;2022-07-22T14:48:55;20.30;;;4.05;;
69878;SDS011;57161;43.136;24.706;2022-07-22T14:51:21;13.57;;;3.47;;
69878;SDS011;57161;43.136;24.706;2022-07-22T14:53:47;7.88;;;3.45;;